sensor_id;sensor_type;location;lat;lon;timestamp;pressure;altitude;pressure_sealevel;temperature;humidity
26711;BME280;18311;52.754;18.118;2022-12-29T00:01:48;100085.75;;;9.22;100.00
26711;BME280;18311;52.754;18.118;2022-12-29T00:04:19;100085.16;;;9.55;100.00
26711;BME280;18311;52.754;18.118;2022-12-29T00:06:50;100083.61;;;9.30;100.00
26711;BME280;18311;52.754;18.118;2022-12-29T00:09:23;100071.92;;;9.33;100.00
26711;BME280;18311;52.754;18.118;2022-12-29T00:11:53;100067.94;;;9.22;100.00
26711;BME280;18311;52.754;18.118;2022-12-29T00:14:24;100072.55;;;9.19;100.00
26711;BME280;18311;52.754;18.118;2022-12-29T00:17:13;100060.75;;;9.24;100.00
26711;BME280;18311;52.754;18.118;2022-12-29T00:19:44;100050.17;;;9.02;100.00
26711;BME280;18311;52.754;18.118;2022-12-29T00:22:32;100042.97;;;9.04;100.00
26711;BME280;18311;52.754;18.118;2022-12-29T00:25:20;100042.41;;;9.17;100.00
26711;BME280;18311;52.754;18.118;2022-12-29T00:28:09;100048.89;;;9.11;100.00
26711;BME280;18311;52.754;18.118;2022-12-29T00:31:00;100052.81;;;9.23;100.00
26711;BME280;18311;52.754;18.118;2022-12-29T00:33:48;100039.17;;;9.29;100.00
26711;BME280;18311;52.754;18.118;2022-12-29T00:36:42;100056.70;;;9.35;100.00
26711;BME280;18311;52.754;18.118;2022-12-29T00:39:16;100059.67;;;9.29;100.00
26711;BME280;18311;52.754;18.118;2022-12-29T00:42:07;100059.73;;;9.27;100.00
26711;BME280;18311;52.754;18.118;2022-12-29T00:44:56;100044.78;;;9.04;100.00
26711;BME280;18311;52.754;18.118;2022-12-29T00:47:27;100053.63;;;9.44;100.00
26711;BME280;18311;52.754;18.118;2022-12-29T00:49:59;100057.66;;;9.34;100.00
26711;BME280;18311;52.754;18.118;2022-12-29T00:52:29;100049.35;;;9.40;100.00
26711;BME280;18311;52.754;18.118;2022-12-29T00:55:00;100052.67;;;9.45;100.00
26711;BME280;18311;52.754;18.118;2022-12-29T00:57:30;100049.78;;;9.31;100.00
26711;BME280;18311;52.754;18.118;2022-12-29T01:00:02;100057.92;;;9.28;100.00
26711;BME280;18311;52.754;18.118;2022-12-29T01:02:36;100054.09;;;9.14;100.00
26711;BME280;18311;52.754;18.118;2022-12-29T01:05:08;100053.56;;;9.45;100.00
26711;BME280;18311;52.754;18.118;2022-12-29T01:07:38;100051.81;;;9.44;100.00
26711;BME280;18311;52.754;18.118;2022-12-29T01:10:15;100048.69;;;9.35;100.00
26711;BME280;18311;52.754;18.118;2022-12-29T01:12:46;100041.27;;;9.41;100.00
26711;BME280;18311;52.754;18.118;2022-12-29T01:15:16;100047.12;;;9.31;100.00
26711;BME280;18311;52.754;18.118;2022-12-29T01:17:47;100043.13;;;9.20;100.00
26711;BME280;18311;52.754;18.118;2022-12-29T01:20:18;100041.86;;;9.67;100.00
26711;BME280;18311;52.754;18.118;2022-12-29T01:22:54;100041.14;;;9.63;100.00
26711;BME280;18311;52.754;18.118;2022-12-29T01:25:24;100037.17;;;9.53;100.00
26711;BME280;18311;52.754;18.118;2022-12-29T01:27:55;100045.08;;;9.17;100.00
26711;BME280;18311;52.754;18.118;2022-12-29T01:30:25;100031.39;;;9.43;100.00
26711;BME280;18311;52.754;18.118;2022-12-29T01:32:56;100039.26;;;9.47;100.00
26711;BME280;18311;52.754;18.118;2022-12-29T01:35:27;100019.41;;;9.52;100.00
26711;BME280;18311;52.754;18.118;2022-12-29T01:37:58;100021.00;;;9.18;100.00
26711;BME280;18311;52.754;18.118;2022-12-29T01:40:29;100024.47;;;9.39;100.00
26711;BME280;18311;52.754;18.118;2022-12-29T01:43:00;100020.71;;;9.43;100.00
26711;BME280;18311;52.754;18.118;2022-12-29T01:45:41;100013.66;;;9.42;100.00
26711;BME280;18311;52.754;18.118;2022-12-29T01:48:12;100025.33;;;9.40;100.00
26711;BME280;18311;52.754;18.118;2022-12-29T01:50:46;100023.17;;;9.48;100.00
26711;BME280;18311;52.754;18.118;2022-12-29T01:53:24;100022.97;;;9.34;100.00
26711;BME280;18311;52.754;18.118;2022-12-29T01:55:56;100022.89;;;9.35;100.00
26711;BME280;18311;52.754;18.118;2022-12-29T01:58:31;100017.11;;;9.25;100.00
26711;BME280;18311;52.754;18.118;2022-12-29T02:01:02;99982.62;;;9.40;100.00
26711;BME280;18311;52.754;18.118;2022-12-29T02:03:33;99982.62;;;9.40;100.00
26711;BME280;18311;52.754;18.118;2022-12-29T02:06:25;99996.48;;;9.29;100.00
26711;BME280;18311;52.754;18.118;2022-12-29T02:08:53;99997.38;;;9.30;100.00
26711;BME280;18311;52.754;18.118;2022-12-29T02:11:26;99979.83;;;9.43;100.00
26711;BME280;18311;52.754;18.118;2022-12-29T02:13:58;99984.38;;;9.41;100.00
26711;BME280;18311;52.754;18.118;2022-12-29T02:16:55;99981.97;;;9.54;100.00
26711;BME280;18311;52.754;18.118;2022-12-29T02:22:54;99953.50;;;9.54;100.00
26711;BME280;18311;52.754;18.118;2022-12-29T02:31:31;99949.95;;;9.35;100.00
26711;BME280;18311;52.754;18.118;2022-12-29T02:37:07;99940.16;;;9.54;100.00
26711;BME280;18311;52.754;18.118;2022-12-29T02:39:49;99939.51;;;9.49;100.00
26711;BME280;18311;52.754;18.118;2022-12-29T02:45:22;99934.13;;;9.32;100.00
26711;BME280;18311;52.754;18.118;2022-12-29T02:47:59;99925.80;;;9.38;100.00
26711;BME280;18311;52.754;18.118;2022-12-29T02:50:33;99928.79;;;9.13;100.00
26711;BME280;18311;52.754;18.118;2022-12-29T02:53:14;99927.63;;;9.18;100.00
26711;BME280;18311;52.754;18.118;2022-12-29T02:55:49;99926.97;;;9.32;100.00
26711;BME280;18311;52.754;18.118;2022-12-29T02:58:22;99932.22;;;8.77;100.00
26711;BME280;18311;52.754;18.118;2022-12-29T03:09:17;99924.83;;;9.02;100.00
26711;BME280;18311;52.754;18.118;2022-12-29T03:11:56;99920.78;;;8.94;100.00
26711;BME280;18311;52.754;18.118;2022-12-29T03:15:04;99921.05;;;8.87;100.00
26711;BME280;18311;52.754;18.118;2022-12-29T03:18:10;99918.55;;;8.84;100.00
26711;BME280;18311;52.754;18.118;2022-12-29T03:20:45;99917.16;;;9.14;100.00
26711;BME280;18311;52.754;18.118;2022-12-29T03:23:16;99918.46;;;8.67;100.00
26711;BME280;18311;52.754;18.118;2022-12-29T03:25:51;99922.94;;;8.85;100.00
26711;BME280;18311;52.754;18.118;2022-12-29T03:28:23;99910.26;;;9.10;100.00
26711;BME280;18311;52.754;18.118;2022-12-29T03:30:56;99914.08;;;8.85;100.00
26711;BME280;18311;52.754;18.118;2022-12-29T03:33:29;99919.48;;;8.83;100.00
26711;BME280;18311;52.754;18.118;2022-12-29T03:36:03;99902.91;;;8.96;100.00
26711;BME280;18311;52.754;18.118;2022-12-29T03:38:53;99906.78;;;8.69;100.00
26711;BME280;18311;52.754;18.118;2022-12-29T03:41:27;99898.45;;;8.77;100.00
26711;BME280;18311;52.754;18.118;2022-12-29T03:43:58;99903.34;;;8.86;100.00
26711;BME280;18311;52.754;18.118;2022-12-29T03:46:29;99896.05;;;8.71;100.00
26711;BME280;18311;52.754;18.118;2022-12-29T03:49:01;99889.78;;;8.91;100.00
26711;BME280;18311;52.754;18.118;2022-12-29T03:51:33;99891.31;;;8.97;100.00
26711;BME280;18311;52.754;18.118;2022-12-29T03:54:04;99882.56;;;8.55;100.00
26711;BME280;18311;52.754;18.118;2022-12-29T03:56:34;99883.89;;;8.84;100.00
26711;BME280;18311;52.754;18.118;2022-12-29T03:59:05;99888.34;;;9.03;100.00
26711;BME280;18311;52.754;18.118;2022-12-29T04:01:35;99886.19;;;8.92;100.00
26711;BME280;18311;52.754;18.118;2022-12-29T04:04:06;99890.36;;;8.98;100.00
26711;BME280;18311;52.754;18.118;2022-12-29T04:06:37;99890.73;;;8.90;100.00
26711;BME280;18311;52.754;18.118;2022-12-29T04:09:10;99890.58;;;8.74;100.00
26711;BME280;18311;52.754;18.118;2022-12-29T04:11:40;99880.06;;;9.09;100.00
26711;BME280;18311;52.754;18.118;2022-12-29T04:14:11;99886.19;;;8.92;100.00
26711;BME280;18311;52.754;18.118;2022-12-29T04:16:42;99879.34;;;8.86;100.00
26711;BME280;18311;52.754;18.118;2022-12-29T04:19:13;99869.61;;;8.85;100.00
26711;BME280;18311;52.754;18.118;2022-12-29T04:21:43;99870.31;;;9.08;100.00
26711;BME280;18311;52.754;18.118;2022-12-29T04:24:14;99868.10;;;8.99;100.00
26711;BME280;18311;52.754;18.118;2022-12-29T04:26:47;99871.63;;;8.80;100.00
26711;BME280;18311;52.754;18.118;2022-12-29T04:29:18;99879.69;;;8.98;100.00
26711;BME280;18311;52.754;18.118;2022-12-29T04:31:48;99868.16;;;8.78;100.00
26711;BME280;18311;52.754;18.118;2022-12-29T04:34:19;99870.55;;;9.40;100.00
26711;BME280;18311;52.754;18.118;2022-12-29T04:36:51;99874.94;;;8.85;100.00
26711;BME280;18311;52.754;18.118;2022-12-29T04:39:21;99871.86;;;8.76;100.00
26711;BME280;18311;52.754;18.118;2022-12-29T04:41:51;99875.66;;;9.08;100.00
26711;BME280;18311;52.754;18.118;2022-12-29T04:44:22;99867.65;;;9.08;100.00
26711;BME280;18311;52.754;18.118;2022-12-29T04:46:53;99864.48;;;9.00;100.00
26711;BME280;18311;52.754;18.118;2022-12-29T04:49:24;99857.22;;;9.03;100.00
26711;BME280;18311;52.754;18.118;2022-12-29T04:51:55;99872.70;;;9.14;100.00
26711;BME280;18311;52.754;18.118;2022-12-29T04:54:26;99859.55;;;9.29;100.00
26711;BME280;18311;52.754;18.118;2022-12-29T04:56:57;99862.77;;;8.99;100.00
26711;BME280;18311;52.754;18.118;2022-12-29T04:59:28;99856.28;;;9.41;100.00
26711;BME280;18311;52.754;18.118;2022-12-29T05:01:59;99860.30;;;9.13;100.00
26711;BME280;18311;52.754;18.118;2022-12-29T05:04:30;99856.10;;;9.26;100.00
26711;BME280;18311;52.754;18.118;2022-12-29T05:07:01;99849.94;;;9.07;100.00
26711;BME280;18311;52.754;18.118;2022-12-29T05:09:32;99860.20;;;9.34;100.00
26711;BME280;18311;52.754;18.118;2022-12-29T05:12:03;99843.69;;;9.25;100.00
26711;BME280;18311;52.754;18.118;2022-12-29T05:14:34;99845.45;;;9.07;100.00
26711;BME280;18311;52.754;18.118;2022-12-29T05:17:04;99853.08;;;9.15;100.00
26711;BME280;18311;52.754;18.118;2022-12-29T05:19:36;99843.55;;;9.29;100.00
26711;BME280;18311;52.754;18.118;2022-12-29T05:22:07;99859.13;;;9.19;100.00
26711;BME280;18311;52.754;18.118;2022-12-29T05:24:39;99860.50;;;9.08;100.00
26711;BME280;18311;52.754;18.118;2022-12-29T05:27:11;99849.91;;;9.43;100.00
26711;BME280;18311;52.754;18.118;2022-12-29T05:29:42;99834.16;;;9.56;100.00
26711;BME280;18311;52.754;18.118;2022-12-29T05:32:14;99833.16;;;9.22;100.00
26711;BME280;18311;52.754;18.118;2022-12-29T05:34:46;99827.68;;;9.25;100.00
26711;BME280;18311;52.754;18.118;2022-12-29T05:37:17;99816.10;;;9.44;100.00
26711;BME280;18311;52.754;18.118;2022-12-29T05:39:48;99819.38;;;8.95;100.00
26711;BME280;18311;52.754;18.118;2022-12-29T05:42:18;99817.64;;;9.31;100.00
26711;BME280;18311;52.754;18.118;2022-12-29T05:44:50;99807.98;;;9.11;100.00
26711;BME280;18311;52.754;18.118;2022-12-29T05:47:23;99795.28;;;9.16;100.00
26711;BME280;18311;52.754;18.118;2022-12-29T05:49:54;99801.86;;;9.26;100.00
26711;BME280;18311;52.754;18.118;2022-12-29T05:52:25;99794.91;;;9.58;100.00
26711;BME280;18311;52.754;18.118;2022-12-29T05:54:56;99796.13;;;9.16;100.00
26711;BME280;18311;52.754;18.118;2022-12-29T05:57:26;99793.78;;;9.28;100.00
26711;BME280;18311;52.754;18.118;2022-12-29T05:59:59;99795.56;;;9.10;100.00
26711;BME280;18311;52.754;18.118;2022-12-29T06:02:30;99782.67;;;9.54;100.00
26711;BME280;18311;52.754;18.118;2022-12-29T06:05:02;99777.78;;;9.45;100.00
26711;BME280;18311;52.754;18.118;2022-12-29T06:07:33;99790.42;;;9.41;100.00
26711;BME280;18311;52.754;18.118;2022-12-29T06:10:05;99781.96;;;9.33;100.00
26711;BME280;18311;52.754;18.118;2022-12-29T06:12:38;99781.70;;;9.38;100.00
26711;BME280;18311;52.754;18.118;2022-12-29T06:15:09;99788.00;;;9.37;100.00
26711;BME280;18311;52.754;18.118;2022-12-29T06:17:40;99799.53;;;9.37;100.00
26711;BME280;18311;52.754;18.118;2022-12-29T06:20:11;99808.39;;;9.38;100.00
26711;BME280;18311;52.754;18.118;2022-12-29T06:22:42;99797.08;;;9.33;100.00
26711;BME280;18311;52.754;18.118;2022-12-29T06:25:13;99817.81;;;9.45;100.00
26711;BME280;18311;52.754;18.118;2022-12-29T06:27:44;99800.75;;;9.13;100.00
26711;BME280;18311;52.754;18.118;2022-12-29T06:30:14;99801.71;;;9.29;100.00
26711;BME280;18311;52.754;18.118;2022-12-29T06:32:46;99796.77;;;9.21;100.00
26711;BME280;18311;52.754;18.118;2022-12-29T06:35:16;99806.09;;;9.13;100.00
26711;BME280;18311;52.754;18.118;2022-12-29T06:37:49;99802.44;;;9.50;100.00
26711;BME280;18311;52.754;18.118;2022-12-29T06:40:21;99796.70;;;9.23;100.00
26711;BME280;18311;52.754;18.118;2022-12-29T06:42:52;99797.52;;;9.06;100.00
26711;BME280;18311;52.754;18.118;2022-12-29T06:45:23;99813.66;;;9.39;100.00
26711;BME280;18311;52.754;18.118;2022-12-29T06:47:53;99807.55;;;9.01;100.00
26711;BME280;18311;52.754;18.118;2022-12-29T06:50:25;99815.41;;;9.04;100.00
26711;BME280;18311;52.754;18.118;2022-12-29T06:52:56;99817.03;;;9.43;100.00
26711;BME280;18311;52.754;18.118;2022-12-29T06:55:26;99809.11;;;9.05;100.00
26711;BME280;18311;52.754;18.118;2022-12-29T06:57:58;99817.19;;;9.57;100.00
26711;BME280;18311;52.754;18.118;2022-12-29T07:00:30;99831.16;;;9.45;100.00
26711;BME280;18311;52.754;18.118;2022-12-29T07:03:01;99827.72;;;9.78;100.00
26711;BME280;18311;52.754;18.118;2022-12-29T07:05:33;99824.34;;;9.57;100.00
26711;BME280;18311;52.754;18.118;2022-12-29T07:08:04;99813.44;;;9.44;100.00
26711;BME280;18311;52.754;18.118;2022-12-29T07:10:35;99818.28;;;9.36;100.00
26711;BME280;18311;52.754;18.118;2022-12-29T07:13:06;99813.29;;;9.47;100.00
26711;BME280;18311;52.754;18.118;2022-12-29T07:15:40;99823.98;;;9.11;100.00
26711;BME280;18311;52.754;18.118;2022-12-29T07:18:10;99827.06;;;9.38;100.00
26711;BME280;18311;52.754;18.118;2022-12-29T07:20:41;99832.13;;;9.61;100.00
26711;BME280;18311;52.754;18.118;2022-12-29T07:23:11;99824.11;;;9.44;100.00
26711;BME280;18311;52.754;18.118;2022-12-29T07:25:42;99822.45;;;9.59;100.00
26711;BME280;18311;52.754;18.118;2022-12-29T07:28:14;99832.28;;;9.58;100.00
26711;BME280;18311;52.754;18.118;2022-12-29T07:30:46;99833.69;;;9.83;100.00
26711;BME280;18311;52.754;18.118;2022-12-29T07:33:17;99824.98;;;9.62;100.00
26711;BME280;18311;52.754;18.118;2022-12-29T07:35:48;99829.53;;;9.60;100.00
26711;BME280;18311;52.754;18.118;2022-12-29T07:38:19;99821.13;;;9.68;100.00
26711;BME280;18311;52.754;18.118;2022-12-29T07:40:50;99823.56;;;9.72;100.00
26711;BME280;18311;52.754;18.118;2022-12-29T07:43:21;99811.39;;;9.84;100.00
26711;BME280;18311;52.754;18.118;2022-12-29T07:45:51;99808.02;;;9.45;100.00
26711;BME280;18311;52.754;18.118;2022-12-29T07:48:22;99808.02;;;9.45;100.00
26711;BME280;18311;52.754;18.118;2022-12-29T07:50:53;99806.05;;;9.84;100.00
26711;BME280;18311;52.754;18.118;2022-12-29T07:53:25;99806.05;;;9.84;100.00
26711;BME280;18311;52.754;18.118;2022-12-29T07:55:56;99812.55;;;9.78;100.00
26711;BME280;18311;52.754;18.118;2022-12-29T07:58:27;99824.11;;;9.96;100.00
26711;BME280;18311;52.754;18.118;2022-12-29T08:00:57;99815.75;;;10.25;100.00
26711;BME280;18311;52.754;18.118;2022-12-29T08:03:28;99815.75;;;10.02;100.00
26711;BME280;18311;52.754;18.118;2022-12-29T08:05:59;99807.95;;;9.82;100.00
26711;BME280;18311;52.754;18.118;2022-12-29T08:08:30;99809.44;;;9.70;100.00
26711;BME280;18311;52.754;18.118;2022-12-29T08:11:00;99808.31;;;9.92;100.00
26711;BME280;18311;52.754;18.118;2022-12-29T08:13:31;99800.42;;;10.06;100.00
26711;BME280;18311;52.754;18.118;2022-12-29T08:16:02;99803.05;;;9.90;100.00
26711;BME280;18311;52.754;18.118;2022-12-29T08:18:34;99795.13;;;10.22;100.00
26711;BME280;18311;52.754;18.118;2022-12-29T08:21:08;99795.13;;;10.22;100.00
26711;BME280;18311;52.754;18.118;2022-12-29T08:23:38;99803.64;;;10.13;100.00
26711;BME280;18311;52.754;18.118;2022-12-29T08:26:10;99811.73;;;10.11;100.00
26711;BME280;18311;52.754;18.118;2022-12-29T08:28:41;99815.48;;;10.25;100.00
26711;BME280;18311;52.754;18.118;2022-12-29T08:31:13;99811.50;;;10.16;100.00
26711;BME280;18311;52.754;18.118;2022-12-29T08:33:44;99815.41;;;10.26;100.00
26711;BME280;18311;52.754;18.118;2022-12-29T08:36:14;99792.05;;;9.96;100.00
26711;BME280;18311;52.754;18.118;2022-12-29T08:38:45;99792.05;;;9.96;100.00
26711;BME280;18311;52.754;18.118;2022-12-29T08:41:17;99823.34;;;10.45;100.00
26711;BME280;18311;52.754;18.118;2022-12-29T08:43:50;99799.45;;;10.25;100.00
26711;BME280;18311;52.754;18.118;2022-12-29T08:46:22;99799.45;;;10.25;100.00
26711;BME280;18311;52.754;18.118;2022-12-29T08:48:54;99796.78;;;10.44;100.00
26711;BME280;18311;52.754;18.118;2022-12-29T08:51:25;99811.88;;;10.43;100.00
26711;BME280;18311;52.754;18.118;2022-12-29T08:53:56;99811.88;;;10.43;100.00
26711;BME280;18311;52.754;18.118;2022-12-29T08:56:28;99830.04;;;10.36;100.00
26711;BME280;18311;52.754;18.118;2022-12-29T08:58:59;99811.57;;;10.32;100.00
26711;BME280;18311;52.754;18.118;2022-12-29T09:01:30;99795.16;;;10.55;100.00
26711;BME280;18311;52.754;18.118;2022-12-29T09:04:02;99814.70;;;10.55;100.00
26711;BME280;18311;52.754;18.118;2022-12-29T09:06:36;99814.70;;;10.40;100.00
26711;BME280;18311;52.754;18.118;2022-12-29T09:09:08;99815.75;;;10.69;100.00
26711;BME280;18311;52.754;18.118;2022-12-29T09:11:40;99815.25;;;10.29;100.00
26711;BME280;18311;52.754;18.118;2022-12-29T09:14:11;99743.10;;;10.29;100.00
26711;BME280;18311;52.754;18.118;2022-12-29T09:16:43;99797.47;;;10.62;100.00
26711;BME280;18311;52.754;18.118;2022-12-29T09:19:32;99787.55;;;10.80;100.00
26711;BME280;18311;52.754;18.118;2022-12-29T09:22:02;99802.30;;;10.87;100.00
26711;BME280;18311;52.754;18.118;2022-12-29T09:24:33;99773.16;;;10.66;100.00
26711;BME280;18311;52.754;18.118;2022-12-29T09:27:03;99773.69;;;10.73;100.00
26711;BME280;18311;52.754;18.118;2022-12-29T09:29:34;99773.69;;;10.73;100.00
26711;BME280;18311;52.754;18.118;2022-12-29T09:32:05;99800.43;;;10.73;100.00
26711;BME280;18311;52.754;18.118;2022-12-29T09:34:38;99776.08;;;10.77;100.00
26711;BME280;18311;52.754;18.118;2022-12-29T09:37:10;99797.84;;;10.71;100.00
26711;BME280;18311;52.754;18.118;2022-12-29T09:39:40;99741.67;;;10.71;100.00
26711;BME280;18311;52.754;18.118;2022-12-29T09:42:19;99790.81;;;11.01;100.00
26711;BME280;18311;52.754;18.118;2022-12-29T09:47:45;99788.84;;;10.72;100.00
26711;BME280;18311;52.754;18.118;2022-12-29T09:53:09;99772.54;;;10.73;100.00
26711;BME280;18311;52.754;18.118;2022-12-29T09:55:47;99772.54;;;10.93;100.00
26711;BME280;18311;52.754;18.118;2022-12-29T10:01:01;99781.78;;;10.87;100.00
26711;BME280;18311;52.754;18.118;2022-12-29T10:03:40;99773.31;;;10.95;100.00
26711;BME280;18311;52.754;18.118;2022-12-29T10:09:38;99781.34;;;10.95;100.00
26711;BME280;18311;52.754;18.118;2022-12-29T10:12:27;99776.95;;;10.94;100.00
26711;BME280;18311;52.754;18.118;2022-12-29T10:25:53;99761.14;;;11.36;100.00
26711;BME280;18311;52.754;18.118;2022-12-29T10:30:57;99755.89;;;10.88;100.00
26711;BME280;18311;52.754;18.118;2022-12-29T10:33:36;99755.89;;;10.88;100.00
26711;BME280;18311;52.754;18.118;2022-12-29T10:39:19;99747.53;;;10.94;100.00
26711;BME280;18311;52.754;18.118;2022-12-29T10:42:04;99761.09;;;11.21;100.00
26711;BME280;18311;52.754;18.118;2022-12-29T10:44:36;99737.59;;;10.96;100.00
26711;BME280;18311;52.754;18.118;2022-12-29T10:47:16;99737.59;;;10.96;100.00
26711;BME280;18311;52.754;18.118;2022-12-29T10:49:43;99754.12;;;11.09;100.00
26711;BME280;18311;52.754;18.118;2022-12-29T10:52:17;99754.12;;;11.19;100.00
26711;BME280;18311;52.754;18.118;2022-12-29T10:57:48;99737.73;;;11.09;100.00
26711;BME280;18311;52.754;18.118;2022-12-29T11:00:21;99737.73;;;11.09;100.00
26711;BME280;18311;52.754;18.118;2022-12-29T11:08:33;99741.79;;;11.46;100.00
26711;BME280;18311;52.754;18.118;2022-12-29T11:11:07;99741.79;;;11.46;100.00
26711;BME280;18311;52.754;18.118;2022-12-29T11:14:03;99738.96;;;11.64;100.00
26711;BME280;18311;52.754;18.118;2022-12-29T11:16:30;99737.79;;;12.13;100.00
26711;BME280;18311;52.754;18.118;2022-12-29T11:19:01;99743.61;;;12.75;100.00
26711;BME280;18311;52.754;18.118;2022-12-29T11:21:35;99727.36;;;12.64;100.00
26711;BME280;18311;52.754;18.118;2022-12-29T11:24:23;99725.34;;;12.68;100.00
26711;BME280;18311;52.754;18.118;2022-12-29T11:26:55;99724.52;;;13.34;100.00
26711;BME280;18311;52.754;18.118;2022-12-29T11:29:36;99711.56;;;12.59;100.00
26711;BME280;18311;52.754;18.118;2022-12-29T11:32:10;99725.22;;;12.27;100.00
26711;BME280;18311;52.754;18.118;2022-12-29T11:34:35;99715.27;;;12.71;100.00
26711;BME280;18311;52.754;18.118;2022-12-29T11:39:56;99715.02;;;12.89;100.00
26711;BME280;18311;52.754;18.118;2022-12-29T11:42:39;99701.04;;;13.11;100.00
26711;BME280;18311;52.754;18.118;2022-12-29T11:45:19;99723.56;;;13.08;100.00
26711;BME280;18311;52.754;18.118;2022-12-29T11:47:59;99706.31;;;12.85;100.00
26711;BME280;18311;52.754;18.118;2022-12-29T11:50:31;99708.06;;;12.44;100.00
26711;BME280;18311;52.754;18.118;2022-12-29T11:55:40;99704.12;;;12.50;100.00
26711;BME280;18311;52.754;18.118;2022-12-29T11:58:14;99706.27;;;12.31;100.00
26711;BME280;18311;52.754;18.118;2022-12-29T12:00:46;99686.30;;;12.49;100.00
26711;BME280;18311;52.754;18.118;2022-12-29T12:03:24;99684.64;;;12.61;100.00
26711;BME280;18311;52.754;18.118;2022-12-29T12:06:03;99683.98;;;12.57;100.00
26711;BME280;18311;52.754;18.118;2022-12-29T12:08:37;99686.64;;;13.12;100.00
26711;BME280;18311;52.754;18.118;2022-12-29T12:11:12;99686.33;;;13.16;100.00
26711;BME280;18311;52.754;18.118;2022-12-29T12:14:02;99685.80;;;13.24;100.00
26711;BME280;18311;52.754;18.118;2022-12-29T12:16:40;99687.73;;;13.22;100.00
26711;BME280;18311;52.754;18.118;2022-12-29T12:19:26;99673.59;;;12.93;100.00
26711;BME280;18311;52.754;18.118;2022-12-29T12:22:03;99671.08;;;12.77;100.00
26711;BME280;18311;52.754;18.118;2022-12-29T12:24:45;99667.12;;;12.82;100.00
26711;BME280;18311;52.754;18.118;2022-12-29T12:27:31;99664.31;;;13.11;100.00
26711;BME280;18311;52.754;18.118;2022-12-29T12:30:14;99661.55;;;12.85;100.00
26711;BME280;18311;52.754;18.118;2022-12-29T12:35:32;99659.19;;;12.54;100.00
26711;BME280;18311;52.754;18.118;2022-12-29T12:46:19;99675.38;;;12.52;100.00
26711;BME280;18311;52.754;18.118;2022-12-29T12:51:46;99676.40;;;12.64;100.00
26711;BME280;18311;52.754;18.118;2022-12-29T12:57:17;99674.85;;;12.33;100.00
26711;BME280;18311;52.754;18.118;2022-12-29T13:00:11;99673.30;;;12.43;100.00
26711;BME280;18311;52.754;18.118;2022-12-29T13:02:59;99673.00;;;12.75;100.00
26711;BME280;18311;52.754;18.118;2022-12-29T13:14:34;99678.72;;;12.56;100.00
26711;BME280;18311;52.754;18.118;2022-12-29T13:17:13;99674.12;;;12.85;100.00
26711;BME280;18311;52.754;18.118;2022-12-29T13:19:46;99685.20;;;12.24;100.00
26711;BME280;18311;52.754;18.118;2022-12-29T13:22:21;99675.88;;;12.72;100.00
26711;BME280;18311;52.754;18.118;2022-12-29T13:25:13;99672.13;;;12.47;100.00
26711;BME280;18311;52.754;18.118;2022-12-29T13:27:43;99675.13;;;12.70;100.00
26711;BME280;18311;52.754;18.118;2022-12-29T13:30:26;99679.70;;;12.55;100.00
26711;BME280;18311;52.754;18.118;2022-12-29T13:33:16;99689.63;;;12.67;100.00
26711;BME280;18311;52.754;18.118;2022-12-29T13:36:06;99688.59;;;12.55;100.00
26711;BME280;18311;52.754;18.118;2022-12-29T13:38:45;99688.17;;;12.61;100.00
26711;BME280;18311;52.754;18.118;2022-12-29T13:41:29;99685.47;;;12.76;100.00
26711;BME280;18311;52.754;18.118;2022-12-29T13:44:02;99681.02;;;12.62;100.00
26711;BME280;18311;52.754;18.118;2022-12-29T13:46:39;99684.98;;;12.42;100.00
26711;BME280;18311;52.754;18.118;2022-12-29T13:49:15;99681.91;;;12.75;100.00
26711;BME280;18311;52.754;18.118;2022-12-29T13:51:54;99685.06;;;12.55;100.00
26711;BME280;18311;52.754;18.118;2022-12-29T13:59:59;99685.25;;;12.52;100.00
26711;BME280;18311;52.754;18.118;2022-12-29T14:02:42;99688.16;;;12.76;100.00
26711;BME280;18311;52.754;18.118;2022-12-29T14:07:58;99693.05;;;12.69;100.00
26711;BME280;18311;52.754;18.118;2022-12-29T14:10:45;99702.89;;;12.41;100.00
26711;BME280;18311;52.754;18.118;2022-12-29T14:13:18;99704.83;;;12.66;100.00
26711;BME280;18311;52.754;18.118;2022-12-29T14:15:57;99691.73;;;12.62;100.00
26711;BME280;18311;52.754;18.118;2022-12-29T14:18:40;99707.53;;;12.25;100.00
26711;BME280;18311;52.754;18.118;2022-12-29T14:21:10;99708.59;;;12.64;100.00
26711;BME280;18311;52.754;18.118;2022-12-29T14:23:42;99719.08;;;12.40;100.00
26711;BME280;18311;52.754;18.118;2022-12-29T14:26:15;99721.21;;;12.20;100.00
26711;BME280;18311;52.754;18.118;2022-12-29T14:28:50;99716.83;;;12.61;100.00
26711;BME280;18311;52.754;18.118;2022-12-29T14:36:57;99719.48;;;12.34;100.00
26711;BME280;18311;52.754;18.118;2022-12-29T14:39:43;99717.36;;;12.24;100.00
26711;BME280;18311;52.754;18.118;2022-12-29T14:42:18;99716.20;;;11.85;100.00
26711;BME280;18311;52.754;18.118;2022-12-29T14:47:50;99729.23;;;11.92;100.00
26711;BME280;18311;52.754;18.118;2022-12-29T14:50:43;99726.48;;;12.22;100.00
26711;BME280;18311;52.754;18.118;2022-12-29T14:53:50;99729.77;;;11.68;100.00
26711;BME280;18311;52.754;18.118;2022-12-29T14:56:18;99713.13;;;11.77;100.00
26711;BME280;18311;52.754;18.118;2022-12-29T14:59:01;99714.20;;;11.75;100.00
26711;BME280;18311;52.754;18.118;2022-12-29T15:01:50;99710.08;;;11.69;100.00
26711;BME280;18311;52.754;18.118;2022-12-29T15:04:22;99707.59;;;11.66;100.00
26711;BME280;18311;52.754;18.118;2022-12-29T15:06:53;99718.30;;;11.80;100.00
26711;BME280;18311;52.754;18.118;2022-12-29T15:09:33;99728.42;;;11.61;100.00
26711;BME280;18311;52.754;18.118;2022-12-29T15:15:26;99715.31;;;11.70;100.00